Progranichnyj, Russia
Current Conditions -  °F | °C
As of 9:00 PM on Sunday 23 Nov 2014 (Local Time) from UHWW Reporting Station
Overcast Overcast  
Wind Chill: 27°   Ceiling: 3000
Heat Index: 34°   Visibility: 6mi
Dew Point: 19°   Wind: 9mph
Humidity: 56%   Direction: 90°E
Pressure: 30.21"   Gusts: NA
Location:  44.4°N, 131.38°E
Report Text: UHWW 231100Z 09004MPS 9999 BKN030 OVC100 01/M07 Q1023 NOSIG RMKQFE766/1021 25CLRD70
Loading
Personal Weather Stations






























Interactive Weather Map New forecast layout! Learn more

10-Day Weather Forecast

Advertisements
Track Severe Weather on mobile